sensor_id;sensor_type;location;lat;lon;timestamp;noise_LAeq;noise_LA_min;noise_LA_max;noise_LA01;noise_LA95
76339;Laerm;26644;50.248;19.032;2023-09-30T00:02:51;50.25;47.05;55.22;;
76339;Laerm;26644;50.248;19.032;2023-09-30T00:05:56;50.11;45.87;55.14;;
76339;Laerm;26644;50.248;19.032;2023-09-30T00:09:00;49.63;45.53;56.20;;
76339;Laerm;26644;50.248;19.032;2023-09-30T00:12:09;51.71;47.03;61.30;;
76339;Laerm;26644;50.248;19.032;2023-09-30T00:15:14;49.65;45.93;54.63;;
76339;Laerm;26644;50.248;19.032;2023-09-30T00:18:19;50.33;45.82;55.54;;
76339;Laerm;26644;50.248;19.032;2023-09-30T00:21:23;49.50;45.35;53.62;;
76339;Laerm;26644;50.248;19.032;2023-09-30T00:24:28;50.27;46.31;55.39;;
76339;Laerm;26644;50.248;19.032;2023-09-30T00:27:35;49.77;46.09;54.69;;
76339;Laerm;26644;50.248;19.032;2023-09-30T00:30:40;50.57;46.42;55.23;;
76339;Laerm;26644;50.248;19.032;2023-09-30T00:33:47;50.40;45.86;63.04;;
76339;Laerm;26644;50.248;19.032;2023-09-30T00:36:52;51.20;46.39;59.65;;
76339;Laerm;26644;50.248;19.032;2023-09-30T00:39:56;49.22;45.07;63.54;;
76339;Laerm;26644;50.248;19.032;2023-09-30T00:43:04;48.39;44.46;52.03;;
76339;Laerm;26644;50.248;19.032;2023-09-30T00:46:26;48.72;44.92;53.65;;
76339;Laerm;26644;50.248;19.032;2023-09-30T00:49:33;49.93;46.07;54.13;;
76339;Laerm;26644;50.248;19.032;2023-09-30T00:52:40;49.62;44.77;57.67;;
76339;Laerm;26644;50.248;19.032;2023-09-30T00:55:45;49.47;45.40;54.40;;
76339;Laerm;26644;50.248;19.032;2023-09-30T00:58:54;50.56;45.27;58.94;;
76339;Laerm;26644;50.248;19.032;2023-09-30T01:02:00;49.08;45.83;52.71;;
76339;Laerm;26644;50.248;19.032;2023-09-30T01:05:07;47.88;44.49;51.99;;
76339;Laerm;26644;50.248;19.032;2023-09-30T01:08:12;48.37;43.81;54.21;;
76339;Laerm;26644;50.248;19.032;2023-09-30T01:11:18;48.55;43.90;55.79;;
76339;Laerm;26644;50.248;19.032;2023-09-30T01:14:28;48.35;44.08;52.97;;
76339;Laerm;26644;50.248;19.032;2023-09-30T01:17:32;49.81;45.95;58.76;;
76339;Laerm;26644;50.248;19.032;2023-09-30T01:20:39;48.33;43.99;56.35;;
76339;Laerm;26644;50.248;19.032;2023-09-30T01:23:47;49.63;44.94;54.61;;
76339;Laerm;26644;50.248;19.032;2023-09-30T01:26:52;49.76;45.55;53.94;;
76339;Laerm;26644;50.248;19.032;2023-09-30T01:29:56;50.17;44.59;54.48;;
76339;Laerm;26644;50.248;19.032;2023-09-30T01:33:03;48.95;44.87;54.08;;
76339;Laerm;26644;50.248;19.032;2023-09-30T01:36:08;49.82;46.02;53.70;;
76339;Laerm;26644;50.248;19.032;2023-09-30T01:39:16;49.03;45.48;56.21;;
76339;Laerm;26644;50.248;19.032;2023-09-30T01:42:21;49.70;45.28;54.74;;
76339;Laerm;26644;50.248;19.032;2023-09-30T01:45:26;50.43;46.01;55.51;;
76339;Laerm;26644;50.248;19.032;2023-09-30T01:48:30;50.19;45.45;56.72;;
76339;Laerm;26644;50.248;19.032;2023-09-30T01:51:35;49.74;46.60;57.41;;
76339;Laerm;26644;50.248;19.032;2023-09-30T01:54:42;48.89;44.72;56.37;;
76339;Laerm;26644;50.248;19.032;2023-09-30T01:57:47;48.11;42.66;59.23;;
76339;Laerm;26644;50.248;19.032;2023-09-30T02:00:52;49.36;46.20;56.29;;
76339;Laerm;26644;50.248;19.032;2023-09-30T02:03:59;51.57;44.67;69.31;;
76339;Laerm;26644;50.248;19.032;2023-09-30T02:07:04;48.62;45.04;54.55;;
76339;Laerm;26644;50.248;19.032;2023-09-30T02:10:11;50.18;45.77;55.60;;
76339;Laerm;26644;50.248;19.032;2023-09-30T02:13:15;48.57;44.52;52.02;;
76339;Laerm;26644;50.248;19.032;2023-09-30T02:16:21;49.43;45.18;54.20;;
76339;Laerm;26644;50.248;19.032;2023-09-30T02:19:25;49.04;45.50;52.99;;
76339;Laerm;26644;50.248;19.032;2023-09-30T02:22:33;50.91;46.22;55.40;;
76339;Laerm;26644;50.248;19.032;2023-09-30T02:25:40;51.66;46.04;64.04;;
76339;Laerm;26644;50.248;19.032;2023-09-30T02:28:45;50.14;44.70;54.85;;
76339;Laerm;26644;50.248;19.032;2023-09-30T02:31:49;51.26;47.60;55.95;;
76339;Laerm;26644;50.248;19.032;2023-09-30T02:34:56;50.57;46.68;54.75;;
76339;Laerm;26644;50.248;19.032;2023-09-30T02:38:00;49.94;46.22;55.87;;
76339;Laerm;26644;50.248;19.032;2023-09-30T02:41:09;50.58;46.40;54.91;;
76339;Laerm;26644;50.248;19.032;2023-09-30T02:44:13;50.80;46.72;55.09;;
76339;Laerm;26644;50.248;19.032;2023-09-30T02:47:18;50.74;46.80;54.79;;
76339;Laerm;26644;50.248;19.032;2023-09-30T02:50:23;49.41;45.67;53.26;;
76339;Laerm;26644;50.248;19.032;2023-09-30T02:53:28;50.49;46.51;58.74;;
76339;Laerm;26644;50.248;19.032;2023-09-30T02:56:35;49.89;44.90;66.55;;
76339;Laerm;26644;50.248;19.032;2023-09-30T02:59:41;49.62;46.41;54.83;;
76339;Laerm;26644;50.248;19.032;2023-09-30T03:02:45;48.40;44.27;56.96;;
76339;Laerm;26644;50.248;19.032;2023-09-30T03:05:50;50.01;46.41;57.63;;
76339;Laerm;26644;50.248;19.032;2023-09-30T03:08:55;49.37;45.28;54.79;;
76339;Laerm;26644;50.248;19.032;2023-09-30T03:12:03;50.07;46.06;54.48;;
76339;Laerm;26644;50.248;19.032;2023-09-30T03:15:10;49.95;47.11;53.30;;
76339;Laerm;26644;50.248;19.032;2023-09-30T03:18:16;49.77;46.04;56.17;;
76339;Laerm;26644;50.248;19.032;2023-09-30T03:21:24;49.71;45.98;52.77;;
76339;Laerm;26644;50.248;19.032;2023-09-30T03:24:29;49.54;45.70;54.50;;
76339;Laerm;26644;50.248;19.032;2023-09-30T03:27:36;53.43;46.35;69.57;;
76339;Laerm;26644;50.248;19.032;2023-09-30T03:30:43;52.04;45.87;68.01;;
76339;Laerm;26644;50.248;19.032;2023-09-30T03:33:47;56.37;45.01;72.68;;
76339;Laerm;26644;50.248;19.032;2023-09-30T03:36:53;49.97;45.58;64.98;;
76339;Laerm;26644;50.248;19.032;2023-09-30T03:40:00;54.56;45.57;70.94;;
76339;Laerm;26644;50.248;19.032;2023-09-30T03:43:16;50.15;46.59;59.79;;
76339;Laerm;26644;50.248;19.032;2023-09-30T03:46:20;52.72;46.39;70.91;;
76339;Laerm;26644;50.248;19.032;2023-09-30T03:49:25;55.24;46.63;70.69;;
76339;Laerm;26644;50.248;19.032;2023-09-30T03:52:34;50.89;45.56;70.28;;
76339;Laerm;26644;50.248;19.032;2023-09-30T03:55:39;56.96;46.90;73.25;;
76339;Laerm;26644;50.248;19.032;2023-09-30T03:58:46;52.81;46.69;72.21;;
76339;Laerm;26644;50.248;19.032;2023-09-30T04:01:51;51.06;48.49;61.65;;
76339;Laerm;26644;50.248;19.032;2023-09-30T04:04:55;51.05;48.10;60.07;;
76339;Laerm;26644;50.248;19.032;2023-09-30T04:08:03;51.61;48.51;62.07;;
76339;Laerm;26644;50.248;19.032;2023-09-30T04:11:07;51.51;47.89;63.95;;
76339;Laerm;26644;50.248;19.032;2023-09-30T04:14:19;54.67;47.27;73.37;;
76339;Laerm;26644;50.248;19.032;2023-09-30T04:17:23;55.03;48.38;78.06;;
76339;Laerm;26644;50.248;19.032;2023-09-30T04:20:29;54.84;47.40;77.33;;
76339;Laerm;26644;50.248;19.032;2023-09-30T04:23:33;53.94;48.47;70.74;;
76339;Laerm;26644;50.248;19.032;2023-09-30T04:26:38;53.54;47.78;72.22;;
76339;Laerm;26644;50.248;19.032;2023-09-30T04:29:45;51.05;47.37;55.74;;
76339;Laerm;26644;50.248;19.032;2023-09-30T04:32:51;51.26;48.01;57.98;;
76339;Laerm;26644;50.248;19.032;2023-09-30T04:35:55;51.35;47.55;61.65;;
76339;Laerm;26644;50.248;19.032;2023-09-30T04:39:00;51.97;48.39;55.86;;
76339;Laerm;26644;50.248;19.032;2023-09-30T04:42:06;51.44;46.70;55.38;;
76339;Laerm;26644;50.248;19.032;2023-09-30T04:45:16;51.46;47.64;54.99;;
76339;Laerm;26644;50.248;19.032;2023-09-30T04:48:21;51.94;48.45;55.88;;
76339;Laerm;26644;50.248;19.032;2023-09-30T04:51:26;51.30;47.61;56.36;;
76339;Laerm;26644;50.248;19.032;2023-09-30T04:54:32;51.90;48.84;57.04;;
76339;Laerm;26644;50.248;19.032;2023-09-30T04:57:37;50.82;47.54;62.93;;
76339;Laerm;26644;50.248;19.032;2023-09-30T05:00:44;51.40;47.84;56.40;;
76339;Laerm;26644;50.248;19.032;2023-09-30T05:03:49;52.22;48.57;60.14;;
76339;Laerm;26644;50.248;19.032;2023-09-30T05:06:53;51.25;47.95;55.25;;
76339;Laerm;26644;50.248;19.032;2023-09-30T05:09:58;51.85;48.10;61.82;;
76339;Laerm;26644;50.248;19.032;2023-09-30T05:13:06;51.08;47.99;54.50;;
76339;Laerm;26644;50.248;19.032;2023-09-30T05:16:14;51.49;48.29;57.24;;
76339;Laerm;26644;50.248;19.032;2023-09-30T05:19:18;58.31;48.01;87.40;;
76339;Laerm;26644;50.248;19.032;2023-09-30T05:22:23;51.68;47.87;69.27;;
76339;Laerm;26644;50.248;19.032;2023-09-30T05:25:28;51.72;48.65;64.46;;
76339;Laerm;26644;50.248;19.032;2023-09-30T05:28:33;50.88;47.54;57.04;;
76339;Laerm;26644;50.248;19.032;2023-09-30T05:31:40;52.08;48.72;70.56;;
76339;Laerm;26644;50.248;19.032;2023-09-30T05:34:45;52.04;49.13;58.53;;
76339;Laerm;26644;50.248;19.032;2023-09-30T05:37:49;52.27;48.77;65.35;;
76339;Laerm;26644;50.248;19.032;2023-09-30T05:40:55;52.26;48.34;67.14;;
76339;Laerm;26644;50.248;19.032;2023-09-30T05:44:00;51.81;47.68;61.51;;
76339;Laerm;26644;50.248;19.032;2023-09-30T05:47:07;52.99;48.53;73.96;;
76339;Laerm;26644;50.248;19.032;2023-09-30T05:50:12;52.63;49.14;62.45;;
76339;Laerm;26644;50.248;19.032;2023-09-30T05:53:19;52.35;48.83;59.91;;
76339;Laerm;26644;50.248;19.032;2023-09-30T05:56:23;53.14;49.26;69.59;;
76339;Laerm;26644;50.248;19.032;2023-09-30T05:59:29;55.91;48.76;72.19;;
76339;Laerm;26644;50.248;19.032;2023-09-30T06:02:36;52.17;48.56;63.19;;
76339;Laerm;26644;50.248;19.032;2023-09-30T06:05:42;52.76;49.13;62.97;;
76339;Laerm;26644;50.248;19.032;2023-09-30T06:08:46;52.07;49.09;66.56;;
76339;Laerm;26644;50.248;19.032;2023-09-30T06:11:51;51.39;48.56;55.24;;
76339;Laerm;26644;50.248;19.032;2023-09-30T06:14:55;52.15;47.98;62.42;;
76339;Laerm;26644;50.248;19.032;2023-09-30T06:18:04;52.18;48.55;55.67;;
76339;Laerm;26644;50.248;19.032;2023-09-30T06:21:08;52.04;48.74;56.97;;
76339;Laerm;26644;50.248;19.032;2023-09-30T06:24:13;52.30;48.95;60.73;;
76339;Laerm;26644;50.248;19.032;2023-09-30T06:27:17;53.53;48.50;67.01;;
76339;Laerm;26644;50.248;19.032;2023-09-30T06:30:24;51.22;47.69;54.59;;
76339;Laerm;26644;50.248;19.032;2023-09-30T06:33:33;51.45;47.79;67.35;;
76339;Laerm;26644;50.248;19.032;2023-09-30T06:36:38;51.90;48.95;61.00;;
76339;Laerm;26644;50.248;19.032;2023-09-30T06:39:42;51.71;48.30;58.02;;
76339;Laerm;26644;50.248;19.032;2023-09-30T06:42:47;51.01;47.96;58.50;;
76339;Laerm;26644;50.248;19.032;2023-09-30T06:45:53;51.57;48.01;65.08;;
76339;Laerm;26644;50.248;19.032;2023-09-30T06:49:00;52.47;48.03;69.57;;
76339;Laerm;26644;50.248;19.032;2023-09-30T06:52:05;51.77;47.74;62.78;;
76339;Laerm;26644;50.248;19.032;2023-09-30T06:55:10;52.02;47.85;58.55;;
76339;Laerm;26644;50.248;19.032;2023-09-30T06:58:15;52.18;48.50;70.51;;
76339;Laerm;26644;50.248;19.032;2023-09-30T07:01:23;51.61;47.06;63.65;;
76339;Laerm;26644;50.248;19.032;2023-09-30T07:04:30;51.50;47.64;67.45;;
76339;Laerm;26644;50.248;19.032;2023-09-30T07:07:35;51.83;48.34;62.59;;
76339;Laerm;26644;50.248;19.032;2023-09-30T07:10:40;51.38;48.50;57.62;;
76339;Laerm;26644;50.248;19.032;2023-09-30T07:13:45;50.91;47.82;56.74;;
76339;Laerm;26644;50.248;19.032;2023-09-30T07:16:50;50.95;47.60;57.03;;
76339;Laerm;26644;50.248;19.032;2023-09-30T07:19:59;51.35;47.97;64.56;;
76339;Laerm;26644;50.248;19.032;2023-09-30T07:23:04;51.38;48.57;67.29;;
76339;Laerm;26644;50.248;19.032;2023-09-30T07:26:11;51.09;47.99;58.15;;
76339;Laerm;26644;50.248;19.032;2023-09-30T07:29:15;52.33;48.73;67.84;;
76339;Laerm;26644;50.248;19.032;2023-09-30T07:32:20;51.44;48.43;55.75;;
76339;Laerm;26644;50.248;19.032;2023-09-30T07:35:27;51.68;48.49;59.35;;
76339;Laerm;26644;50.248;19.032;2023-09-30T07:38:32;51.74;47.63;60.17;;
76339;Laerm;26644;50.248;19.032;2023-09-30T07:41:37;53.68;47.12;76.61;;
76339;Laerm;26644;50.248;19.032;2023-09-30T07:44:43;54.11;48.85;79.84;;
76339;Laerm;26644;50.248;19.032;2023-09-30T07:47:47;51.73;48.04;59.15;;
76339;Laerm;26644;50.248;19.032;2023-09-30T07:50:55;52.03;48.06;62.13;;
76339;Laerm;26644;50.248;19.032;2023-09-30T07:54:00;55.06;48.57;79.38;;
76339;Laerm;26644;50.248;19.032;2023-09-30T07:57:05;52.02;48.30;74.52;;
76339;Laerm;26644;50.248;19.032;2023-09-30T08:00:11;50.93;47.58;60.98;;
76339;Laerm;26644;50.248;19.032;2023-09-30T08:03:19;51.64;48.21;69.63;;
76339;Laerm;26644;50.248;19.032;2023-09-30T08:06:26;51.22;47.68;71.58;;
76339;Laerm;26644;50.248;19.032;2023-09-30T08:09:31;51.08;47.59;55.92;;
76339;Laerm;26644;50.248;19.032;2023-09-30T08:12:36;51.38;48.07;63.44;;
76339;Laerm;26644;50.248;19.032;2023-09-30T08:15:41;53.58;47.30;73.96;;
76339;Laerm;26644;50.248;19.032;2023-09-30T08:18:45;53.11;47.22;71.56;;
76339;Laerm;26644;50.248;19.032;2023-09-30T08:21:53;50.74;47.18;65.17;;
76339;Laerm;26644;50.248;19.032;2023-09-30T08:24:57;51.04;45.66;71.78;;
76339;Laerm;26644;50.248;19.032;2023-09-30T08:28:03;51.20;47.27;67.48;;
76339;Laerm;26644;50.248;19.032;2023-09-30T08:31:08;50.60;47.33;55.06;;
76339;Laerm;26644;50.248;19.032;2023-09-30T08:34:13;51.23;47.58;65.90;;
76339;Laerm;26644;50.248;19.032;2023-09-30T08:37:21;61.06;46.98;95.23;;
76339;Laerm;26644;50.248;19.032;2023-09-30T08:40:26;51.67;47.37;72.44;;
76339;Laerm;26644;50.248;19.032;2023-09-30T08:43:37;51.01;47.14;67.73;;
76339;Laerm;26644;50.248;19.032;2023-09-30T08:46:44;51.10;47.28;60.48;;
76339;Laerm;26644;50.248;19.032;2023-09-30T08:49:50;51.19;47.16;60.66;;
76339;Laerm;26644;50.248;19.032;2023-09-30T08:53:04;51.78;47.92;61.40;;
76339;Laerm;26644;50.248;19.032;2023-09-30T08:56:10;54.20;46.66;76.99;;
76339;Laerm;26644;50.248;19.032;2023-09-30T08:59:16;51.24;47.80;65.18;;
76339;Laerm;26644;50.248;19.032;2023-09-30T09:02:21;52.36;47.47;72.18;;
76339;Laerm;26644;50.248;19.032;2023-09-30T09:05:26;50.73;46.67;63.24;;
76339;Laerm;26644;50.248;19.032;2023-09-30T09:08:33;50.52;47.52;64.72;;
76339;Laerm;26644;50.248;19.032;2023-09-30T09:11:38;51.16;47.66;72.30;;
76339;Laerm;26644;50.248;19.032;2023-09-30T09:14:42;51.12;47.69;60.90;;
76339;Laerm;26644;50.248;19.032;2023-09-30T09:17:48;50.65;47.50;60.21;;
76339;Laerm;26644;50.248;19.032;2023-09-30T09:21:08;51.24;47.87;57.93;;
76339;Laerm;26644;50.248;19.032;2023-09-30T09:24:27;50.63;48.05;55.03;;
76339;Laerm;26644;50.248;19.032;2023-09-30T09:27:34;51.75;47.66;70.38;;
76339;Laerm;26644;50.248;19.032;2023-09-30T09:30:40;51.40;47.58;70.51;;
76339;Laerm;26644;50.248;19.032;2023-09-30T09:33:45;51.69;48.08;71.59;;
76339;Laerm;26644;50.248;19.032;2023-09-30T09:36:49;52.00;48.08;73.37;;
76339;Laerm;26644;50.248;19.032;2023-09-30T09:39:58;54.95;47.49;83.11;;
76339;Laerm;26644;50.248;19.032;2023-09-30T09:43:05;68.28;47.67;97.44;;
76339;Laerm;26644;50.248;19.032;2023-09-30T09:46:10;52.71;48.45;70.58;;
76339;Laerm;26644;50.248;19.032;2023-09-30T09:49:17;52.19;49.00;58.82;;
76339;Laerm;26644;50.248;19.032;2023-09-30T09:52:23;53.06;49.30;59.51;;
76339;Laerm;26644;50.248;19.032;2023-09-30T09:55:33;52.32;49.37;59.63;;
76339;Laerm;26644;50.248;19.032;2023-09-30T09:58:40;53.06;49.16;62.33;;
76339;Laerm;26644;50.248;19.032;2023-09-30T10:01:46;54.67;50.85;62.00;;
76339;Laerm;26644;50.248;19.032;2023-09-30T10:04:50;56.58;52.36;66.05;;
76339;Laerm;26644;50.248;19.032;2023-09-30T10:08:14;56.86;52.77;64.41;;
76339;Laerm;26644;50.248;19.032;2023-09-30T10:11:23;56.12;51.30;65.46;;
76339;Laerm;26644;50.248;19.032;2023-09-30T10:14:33;54.18;49.46;68.61;;
76339;Laerm;26644;50.248;19.032;2023-09-30T10:17:58;52.67;48.71;63.75;;
76339;Laerm;26644;50.248;19.032;2023-09-30T10:21:08;54.13;49.06;72.82;;
76339;Laerm;26644;50.248;19.032;2023-09-30T10:24:29;53.49;49.91;62.53;;
76339;Laerm;26644;50.248;19.032;2023-09-30T10:27:37;54.32;49.96;63.64;;
76339;Laerm;26644;50.248;19.032;2023-09-30T10:31:09;56.72;52.29;64.96;;
76339;Laerm;26644;50.248;19.032;2023-09-30T10:34:22;56.39;51.10;65.42;;
76339;Laerm;26644;50.248;19.032;2023-09-30T10:37:27;54.25;50.14;64.40;;
76339;Laerm;26644;50.248;19.032;2023-09-30T10:40:32;52.97;48.73;63.47;;
76339;Laerm;26644;50.248;19.032;2023-09-30T10:43:40;54.69;49.55;72.41;;
76339;Laerm;26644;50.248;19.032;2023-09-30T10:46:46;52.13;49.16;64.46;;
76339;Laerm;26644;50.248;19.032;2023-09-30T10:49:50;52.43;49.22;64.40;;
76339;Laerm;26644;50.248;19.032;2023-09-30T10:53:03;52.95;49.11;70.68;;
76339;Laerm;26644;50.248;19.032;2023-09-30T10:56:09;52.76;48.60;72.68;;
76339;Laerm;26644;50.248;19.032;2023-09-30T10:59:23;52.80;48.42;70.65;;
76339;Laerm;26644;50.248;19.032;2023-09-30T11:02:27;52.27;49.04;63.53;;
76339;Laerm;26644;50.248;19.032;2023-09-30T11:05:33;52.36;49.21;63.74;;
76339;Laerm;26644;50.248;19.032;2023-09-30T11:08:49;52.48;48.02;66.65;;
76339;Laerm;26644;50.248;19.032;2023-09-30T11:11:55;55.30;50.13;76.67;;
76339;Laerm;26644;50.248;19.032;2023-09-30T11:15:04;54.85;49.92;70.15;;
76339;Laerm;26644;50.248;19.032;2023-09-30T11:18:16;54.74;50.88;64.42;;
76339;Laerm;26644;50.248;19.032;2023-09-30T11:21:23;54.00;50.90;63.17;;
76339;Laerm;26644;50.248;19.032;2023-09-30T11:24:28;53.72;49.94;62.58;;
76339;Laerm;26644;50.248;19.032;2023-09-30T11:27:35;53.78;49.83;67.84;;
76339;Laerm;26644;50.248;19.032;2023-09-30T11:30:59;54.99;50.78;70.92;;
76339;Laerm;26644;50.248;19.032;2023-09-30T11:34:05;54.96;51.38;66.14;;
76339;Laerm;26644;50.248;19.032;2023-09-30T11:37:10;54.83;50.74;71.29;;
76339;Laerm;26644;50.248;19.032;2023-09-30T11:40:15;52.84;49.95;59.44;;
76339;Laerm;26644;50.248;19.032;2023-09-30T11:43:25;53.63;50.30;60.37;;
76339;Laerm;26644;50.248;19.032;2023-09-30T11:46:48;52.73;48.12;61.38;;
76339;Laerm;26644;50.248;19.032;2023-09-30T11:49:54;54.14;50.10;62.38;;
76339;Laerm;26644;50.248;19.032;2023-09-30T11:52:58;54.76;50.90;75.23;;
76339;Laerm;26644;50.248;19.032;2023-09-30T11:56:03;54.74;50.90;65.37;;
76339;Laerm;26644;50.248;19.032;2023-09-30T11:59:11;53.53;50.53;63.51;;
76339;Laerm;26644;50.248;19.032;2023-09-30T12:02:18;54.04;51.14;62.59;;
76339;Laerm;26644;50.248;19.032;2023-09-30T12:05:22;54.88;50.86;68.59;;
76339;Laerm;26644;50.248;19.032;2023-09-30T12:08:27;53.50;50.37;61.64;;
76339;Laerm;26644;50.248;19.032;2023-09-30T12:11:33;53.86;50.59;63.47;;
76339;Laerm;26644;50.248;19.032;2023-09-30T12:14:38;54.05;49.37;73.48;;
76339;Laerm;26644;50.248;19.032;2023-09-30T12:17:45;52.67;49.90;62.80;;
76339;Laerm;26644;50.248;19.032;2023-09-30T12:20:50;53.53;49.91;70.85;;
76339;Laerm;26644;50.248;19.032;2023-09-30T12:23:55;52.96;49.34;60.27;;
76339;Laerm;26644;50.248;19.032;2023-09-30T12:27:00;52.42;49.36;65.71;;
76339;Laerm;26644;50.248;19.032;2023-09-30T12:30:06;57.23;49.36;75.36;;
76339;Laerm;26644;50.248;19.032;2023-09-30T12:33:14;53.43;50.07;59.17;;
76339;Laerm;26644;50.248;19.032;2023-09-30T12:36:18;52.99;49.76;60.84;;
76339;Laerm;26644;50.248;19.032;2023-09-30T12:39:23;53.09;49.60;60.39;;
76339;Laerm;26644;50.248;19.032;2023-09-30T12:42:31;53.48;49.10;66.19;;
76339;Laerm;26644;50.248;19.032;2023-09-30T12:45:37;52.65;48.76;59.62;;
76339;Laerm;26644;50.248;19.032;2023-09-30T12:48:44;52.64;49.30;62.12;;
76339;Laerm;26644;50.248;19.032;2023-09-30T12:51:50;52.41;49.24;66.09;;
76339;Laerm;26644;50.248;19.032;2023-09-30T12:54:54;52.97;49.78;61.34;;
76339;Laerm;26644;50.248;19.032;2023-09-30T12:58:00;52.75;49.92;59.92;;
76339;Laerm;26644;50.248;19.032;2023-09-30T13:01:04;52.90;49.67;65.17;;
76339;Laerm;26644;50.248;19.032;2023-09-30T13:04:12;57.95;49.02;85.27;;
76339;Laerm;26644;50.248;19.032;2023-09-30T13:07:16;52.54;49.13;60.61;;
76339;Laerm;26644;50.248;19.032;2023-09-30T13:10:21;52.70;49.06;64.55;;
76339;Laerm;26644;50.248;19.032;2023-09-30T13:13:26;52.81;48.34;71.65;;
76339;Laerm;26644;50.248;19.032;2023-09-30T13:16:32;52.58;49.22;61.85;;
76339;Laerm;26644;50.248;19.032;2023-09-30T13:19:39;53.45;49.22;69.43;;
76339;Laerm;26644;50.248;19.032;2023-09-30T13:22:44;52.10;48.85;59.92;;
76339;Laerm;26644;50.248;19.032;2023-09-30T13:25:49;52.19;48.90;61.43;;
76339;Laerm;26644;50.248;19.032;2023-09-30T13:28:54;52.67;48.80;67.32;;
76339;Laerm;26644;50.248;19.032;2023-09-30T13:31:58;52.28;49.37;62.54;;
76339;Laerm;26644;50.248;19.032;2023-09-30T13:35:07;51.96;47.50;56.98;;
76339;Laerm;26644;50.248;19.032;2023-09-30T13:38:11;53.08;49.43;67.11;;
76339;Laerm;26644;50.248;19.032;2023-09-30T13:41:18;52.72;49.53;63.93;;
76339;Laerm;26644;50.248;19.032;2023-09-30T13:44:22;52.71;49.34;60.90;;
76339;Laerm;26644;50.248;19.032;2023-09-30T13:47:27;52.03;48.73;58.08;;
76339;Laerm;26644;50.248;19.032;2023-09-30T13:50:34;68.06;49.31;94.20;;
76339;Laerm;26644;50.248;19.032;2023-09-30T13:53:39;59.09;48.84;84.59;;
76339;Laerm;26644;50.248;19.032;2023-09-30T13:56:44;53.14;49.00;64.19;;
76339;Laerm;26644;50.248;19.032;2023-09-30T13:59:50;52.61;48.46;75.21;;
76339;Laerm;26644;50.248;19.032;2023-09-30T14:02:54;52.00;48.66;60.83;;
76339;Laerm;26644;50.248;19.032;2023-09-30T14:06:01;52.25;47.49;62.46;;
76339;Laerm;26644;50.248;19.032;2023-09-30T14:09:09;51.43;47.88;63.62;;
76339;Laerm;26644;50.248;19.032;2023-09-30T14:12:16;51.94;48.34;67.47;;
76339;Laerm;26644;50.248;19.032;2023-09-30T14:15:21;51.94;49.32;68.68;;
76339;Laerm;26644;50.248;19.032;2023-09-30T14:18:26;52.02;48.83;62.53;;
76339;Laerm;26644;50.248;19.032;2023-09-30T14:21:33;51.94;48.35;66.96;;
76339;Laerm;26644;50.248;19.032;2023-09-30T14:24:38;52.97;48.96;67.08;;
76339;Laerm;26644;50.248;19.032;2023-09-30T14:27:42;51.90;48.40;59.40;;
76339;Laerm;26644;50.248;19.032;2023-09-30T14:30:47;52.09;48.21;58.92;;
76339;Laerm;26644;50.248;19.032;2023-09-30T14:33:52;51.92;48.32;59.86;;
76339;Laerm;26644;50.248;19.032;2023-09-30T14:37:00;51.50;47.98;62.99;;
76339;Laerm;26644;50.248;19.032;2023-09-30T14:40:05;54.87;48.46;79.20;;
76339;Laerm;26644;50.248;19.032;2023-09-30T14:43:12;51.86;48.47;64.03;;
76339;Laerm;26644;50.248;19.032;2023-09-30T14:46:16;52.18;48.59;67.08;;
76339;Laerm;26644;50.248;19.032;2023-09-30T14:49:22;52.60;49.11;60.82;;
76339;Laerm;26644;50.248;19.032;2023-09-30T14:52:28;52.43;49.32;65.97;;
76339;Laerm;26644;50.248;19.032;2023-09-30T14:55:33;52.55;49.80;63.65;;
76339;Laerm;26644;50.248;19.032;2023-09-30T14:58:38;52.63;48.41;60.26;;
76339;Laerm;26644;50.248;19.032;2023-09-30T15:01:43;58.88;50.01;78.76;;
76339;Laerm;26644;50.248;19.032;2023-09-30T15:04:47;52.78;49.11;62.23;;
76339;Laerm;26644;50.248;19.032;2023-09-30T15:07:54;53.25;49.46;60.14;;
76339;Laerm;26644;50.248;19.032;2023-09-30T15:11:00;52.98;49.87;66.64;;
76339;Laerm;26644;50.248;19.032;2023-09-30T15:14:06;52.53;48.57;67.09;;
76339;Laerm;26644;50.248;19.032;2023-09-30T15:17:10;52.99;49.71;60.88;;
76339;Laerm;26644;50.248;19.032;2023-09-30T15:20:15;60.51;49.98;84.31;;
76339;Laerm;26644;50.248;19.032;2023-09-30T15:23:23;53.18;50.21;68.38;;
76339;Laerm;26644;50.248;19.032;2023-09-30T15:26:28;59.07;50.06;75.28;;
76339;Laerm;26644;50.248;19.032;2023-09-30T15:29:32;52.83;49.40;64.31;;
76339;Laerm;26644;50.248;19.032;2023-09-30T15:32:39;52.66;48.85;64.87;;
76339;Laerm;26644;50.248;19.032;2023-09-30T15:35:43;52.46;49.05;67.59;;
76339;Laerm;26644;50.248;19.032;2023-09-30T15:38:52;52.60;48.44;66.36;;
76339;Laerm;26644;50.248;19.032;2023-09-30T15:41:57;52.46;49.00;56.52;;
76339;Laerm;26644;50.248;19.032;2023-09-30T15:45:02;53.39;49.24;64.22;;
76339;Laerm;26644;50.248;19.032;2023-09-30T15:48:06;52.81;49.36;61.14;;
76339;Laerm;26644;50.248;19.032;2023-09-30T15:51:11;53.43;49.28;63.50;;
76339;Laerm;26644;50.248;19.032;2023-09-30T15:54:19;52.81;49.25;63.54;;
76339;Laerm;26644;50.248;19.032;2023-09-30T15:57:24;53.48;49.27;66.34;;
76339;Laerm;26644;50.248;19.032;2023-09-30T16:00:28;55.06;50.00;72.04;;
76339;Laerm;26644;50.248;19.032;2023-09-30T16:03:33;55.28;48.49;69.66;;
76339;Laerm;26644;50.248;19.032;2023-09-30T16:06:39;55.58;49.34;68.57;;
76339;Laerm;26644;50.248;19.032;2023-09-30T16:09:46;56.17;49.29;70.19;;
76339;Laerm;26644;50.248;19.032;2023-09-30T16:12:50;54.26;48.82;69.79;;
76339;Laerm;26644;50.248;19.032;2023-09-30T16:15:55;53.66;49.22;64.47;;
76339;Laerm;26644;50.248;19.032;2023-09-30T16:19:00;53.45;49.56;65.55;;
76339;Laerm;26644;50.248;19.032;2023-09-30T16:22:05;52.36;49.51;64.65;;
76339;Laerm;26644;50.248;19.032;2023-09-30T16:25:11;53.03;49.25;64.47;;
76339;Laerm;26644;50.248;19.032;2023-09-30T16:28:16;52.64;49.31;62.95;;
76339;Laerm;26644;50.248;19.032;2023-09-30T16:31:21;53.15;48.99;69.16;;
76339;Laerm;26644;50.248;19.032;2023-09-30T16:34:25;53.10;48.55;66.59;;
76339;Laerm;26644;50.248;19.032;2023-09-30T16:37:30;52.24;48.80;58.72;;
76339;Laerm;26644;50.248;19.032;2023-09-30T16:40:38;52.99;49.44;63.00;;
76339;Laerm;26644;50.248;19.032;2023-09-30T16:43:42;59.03;49.52;75.77;;
76339;Laerm;26644;50.248;19.032;2023-09-30T16:46:47;59.61;49.33;74.22;;
76339;Laerm;26644;50.248;19.032;2023-09-30T16:49:52;58.64;49.44;78.83;;
76339;Laerm;26644;50.248;19.032;2023-09-30T16:52:57;56.67;49.25;69.38;;
76339;Laerm;26644;50.248;19.032;2023-09-30T16:56:06;55.37;48.76;69.13;;
76339;Laerm;26644;50.248;19.032;2023-09-30T16:59:11;53.67;49.45;65.42;;
76339;Laerm;26644;50.248;19.032;2023-09-30T17:02:15;52.08;48.21;63.33;;
76339;Laerm;26644;50.248;19.032;2023-09-30T17:05:20;52.89;48.59;61.73;;
76339;Laerm;26644;50.248;19.032;2023-09-30T17:08:25;52.07;49.30;59.49;;